Pagrindinis puslapis
METAR-TAF:

METAR-TAF

Oro uostai :

Pekino tarptautinis oro uostas

Pekinas, Kinija

platuma: 39-56N, ilguma: 116-17E, Aukštis: 55 m

Dabartinis oras

Ataskaita buvo paskelbta 20 minutes, ne 16:30 UTC
Vėjas 2 kt iš Rytų
Temperatūra -5°C
Drėgmė 79%
Slėgis 1029 hPa
Matomumas: 8000 m

METAR: ZBAA 071630Z 08001MPS 8000 NSC M05/M08 Q1029 NOSIG

Laikas: 00:50 (16:50 UTC)

Prognozė

Ataskaita buvo paskelbta 7 valandos ir 20 minutes, ne 09:30 UTC
Prognozė galioja nuo 07 metu 12 UTC su 08 metu 12 UTC
Vėjas 8 kt iš Pietų/Pietryčių
Matomumas: 3500 m
rūkana

TAF: ZBAA 070930Z 0712/0812 15004MPS 3500 BR NSC TX04/0807Z TNM08/21Z

Orai ataskaitas ir orų prognozės (METAR, TAF).

turimą stotys yra geltonos ir raudonos taškus žemėlapyje.

Perkelti pele per norėdami pamatyti stoties vardą.

Tada spustelėkite, norėdami matyti oro stebėjimo ir prognozės.

Norėdami pakeisti žemėlapį: spustelėkite ant žalios mygtukų su juodo kryžiaus žemyn,; žalią mygtuką su brūkšneliu, jei norite nutolinti; arba žalių rodyklių gretimoms žemėlapius.


METAR-TAF: